createdAt,value
2022-10-18T00:02:29.366Z,85
2022-10-18T00:08:05.559Z,84.9
2022-10-18T00:13:41.591Z,84.8
2022-10-18T00:19:18.537Z,84.6
2022-10-18T00:24:53.392Z,84.8
2022-10-18T00:30:28.284Z,85
2022-10-18T00:36:03.878Z,84.6
2022-10-18T00:42:00.486Z,84.3
2022-10-18T00:47:33.365Z,84.3
2022-10-18T00:53:08.433Z,84.4
2022-10-18T00:58:43.316Z,84.2
2022-10-18T01:04:18.139Z,84.1
2022-10-18T01:09:53.189Z,83.9
2022-10-18T01:15:29.096Z,83.8
2022-10-18T01:21:05.005Z,83.6
2022-10-18T01:26:40.023Z,83.7
2022-10-18T01:32:15.778Z,84
2022-10-18T01:37:51.812Z,84.1
2022-10-18T01:43:48.651Z,83.9
2022-10-18T01:49:21.594Z,84
2022-10-18T01:54:56.507Z,83.6
2022-10-18T02:00:31.495Z,83.3
2022-10-18T02:06:06.456Z,83.1
2022-10-18T02:11:41.176Z,83.2
2022-10-18T02:17:17.146Z,83.7
2022-10-18T02:22:51.967Z,82.9
2022-10-18T02:28:26.861Z,82.5
2022-10-18T02:34:02.874Z,82.2
2022-10-18T02:39:38.020Z,82.2
2022-10-18T02:45:12.775Z,82.2
2022-10-18T02:50:47.795Z,82.4
2022-10-18T02:56:23.724Z,82.4
2022-10-18T03:01:59.530Z,82.4
2022-10-18T03:07:35.571Z,82.4
2022-10-18T03:13:10.567Z,82.5
2022-10-18T03:18:46.371Z,82.4
2022-10-18T03:24:21.363Z,82.9
2022-10-18T03:29:56.191Z,82.9
2022-10-18T03:35:30.876Z,82.8
2022-10-18T03:41:27.694Z,82.6
2022-10-18T03:47:01.527Z,82.3
2022-10-18T03:52:37.665Z,82.3
2022-10-18T03:58:12.478Z,82.3
2022-10-18T04:03:47.561Z,82.2
2022-10-18T04:09:22.302Z,82.2
2022-10-18T04:14:58.121Z,82
2022-10-18T04:20:34.274Z,82.2
2022-10-18T04:26:09.187Z,82.3
2022-10-18T04:31:44.158Z,82
2022-10-18T04:37:20.143Z,82
2022-10-18T04:43:16.928Z,81.7
2022-10-18T04:48:49.783Z,82
2022-10-18T04:54:28.667Z,82
2022-10-18T05:00:04.916Z,82
2022-10-18T05:06:02.149Z,82.1
2022-10-18T05:11:38.726Z,82.2
2022-10-18T05:17:13.856Z,82.4
2022-10-18T05:22:48.770Z,82.7
2022-10-18T05:28:41.398Z,82.7
2022-10-18T05:34:17.838Z,82.6
2022-10-18T05:39:52.753Z,82.4
2022-10-18T05:45:28.919Z,82.1
2022-10-18T05:51:04.638Z,82.1
2022-10-18T05:56:40.524Z,82.1
2022-10-18T06:02:15.749Z,82.2
2022-10-18T06:07:51.151Z,82.4
2022-10-18T06:13:31.268Z,82.5
2022-10-18T06:19:08.938Z,82.3
2022-10-18T06:24:44.901Z,82.4
2022-10-18T06:30:19.680Z,82.4
2022-10-18T06:35:54.545Z,82.5
2022-10-18T06:41:51.259Z,82.4
2022-10-18T06:47:24.056Z,83.6
2022-10-18T06:53:00.079Z,84.9
2022-10-18T06:58:36.163Z,84.4
2022-10-18T07:04:28.115Z,84.7
2022-10-18T07:10:13.635Z,85.5
2022-10-18T07:15:49.734Z,86.1
2022-10-18T07:21:24.727Z,85.5
2022-10-18T07:27:20.671Z,86.7
2022-10-18T07:33:09.915Z,86.3
2022-10-18T07:38:45.059Z,86.4
2022-10-18T07:44:29.146Z,86.2
2022-10-18T07:50:03.997Z,86.5
2022-10-18T07:55:44.258Z,87
2022-10-18T08:01:19.643Z,85.2
2022-10-18T08:06:55.813Z,85.3
2022-10-18T08:12:30.640Z,86.2
2022-10-18T08:18:28.396Z,78.9
2022-10-18T08:24:06.485Z,83.8
2022-10-18T08:29:42.698Z,80.4
2022-10-18T08:35:22.157Z,82.1
2022-10-18T08:41:45.005Z,82.9
2022-10-18T08:47:17.743Z,84.6
2022-10-18T08:53:08.106Z,82.9
2022-10-18T08:58:53.836Z,83.8
2022-10-18T09:06:01.185Z,82.6
2022-10-18T09:11:43.384Z,84.6
2022-10-18T09:17:18.418Z,80.6
2022-10-18T09:22:55.451Z,81.3
2022-10-18T09:28:35.767Z,68
2022-10-18T09:34:11.638Z,69.4
2022-10-18T09:39:52.725Z,78.2
2022-10-18T09:45:27.915Z,77.7
2022-10-18T09:51:19.308Z,72.1
2022-10-18T10:02:37.786Z,67.4
2022-10-18T10:08:31.831Z,64.3
2022-10-18T10:14:28.733Z,65
2022-10-18T10:20:09.469Z,66
2022-10-18T10:25:44.399Z,62.7
2022-10-18T10:31:19.429Z,65.8
2022-10-18T10:36:54.477Z,66.3
2022-10-18T10:42:51.105Z,60.5
2022-10-18T10:49:38.942Z,58
2022-10-18T10:55:35.757Z,56.2
2022-10-18T11:01:11.840Z,62.7
2022-10-18T11:06:47.657Z,60.5
2022-10-18T11:12:23.678Z,60.7
2022-10-18T11:17:58.750Z,58.7
2022-10-18T11:23:37.044Z,59.8
2022-10-18T11:29:11.909Z,58.5
2022-10-18T11:34:46.799Z,59.7
2022-10-18T11:40:21.915Z,60.5
2022-10-18T11:45:57.062Z,59.8
2022-10-18T11:52:08.138Z,61.1
2022-10-18T11:57:51.398Z,59.2
2022-10-18T12:03:26.423Z,57.6
2022-10-18T12:09:01.443Z,52.7
2022-10-18T12:14:37.280Z,51.6
2022-10-18T12:20:12.368Z,50.5
2022-10-18T12:25:48.261Z,49.6
2022-10-18T12:31:26.100Z,52.8
2022-10-18T12:43:03.256Z,47.2
2022-10-18T12:48:39.356Z,47.5
2022-10-18T12:54:40.697Z,48.8
2022-10-18T13:00:17.845Z,46.2
2022-10-18T13:05:57.265Z,45.5
2022-10-18T13:11:52.576Z,44.5
2022-10-18T13:17:48.525Z,44.4
2022-10-18T13:23:28.005Z,44.1
2022-10-18T13:29:08.661Z,42.4
2022-10-18T13:34:45.119Z,44.1
2022-10-18T13:40:21.030Z,45.8
2022-10-18T13:46:00.362Z,47
2022-10-18T13:51:39.515Z,43.7
2022-10-18T13:57:15.712Z,44.4
2022-10-18T14:02:59.566Z,43.7
2022-10-18T14:09:58.491Z,42.7
2022-10-18T14:15:40.003Z,44.1
2022-10-18T14:21:31.631Z,41.9
2022-10-18T14:27:31.186Z,41.3
2022-10-18T14:33:09.113Z,41.7
2022-10-18T14:38:44.204Z,44.9
2022-10-18T14:44:29.251Z,44.1
2022-10-18T14:50:04.412Z,42.2
2022-10-18T14:55:39.418Z,42
2022-10-18T15:01:19.806Z,44.1
2022-10-18T15:06:55.445Z,44.8
2022-10-18T15:12:57.702Z,45.2
2022-10-18T15:19:11.326Z,45.2
2022-10-18T15:24:47.062Z,49.9
2022-10-18T15:30:22.460Z,44.7
2022-10-18T15:35:57.543Z,45.8
2022-10-18T15:42:44.319Z,46.1
2022-10-18T15:48:17.895Z,48
2022-10-18T15:53:54.343Z,47.2
2022-10-18T15:59:45.995Z,46.3
2022-10-18T16:05:47.189Z,47.8
2022-10-18T16:11:27.145Z,48.6
2022-10-18T16:17:05.053Z,53.1
2022-10-18T16:22:40.915Z,50
2022-10-18T16:28:26.577Z,49.9
2022-10-18T16:34:37.539Z,50
2022-10-18T16:40:13.489Z,52.1
2022-10-18T16:45:48.792Z,54
2022-10-18T16:51:35.493Z,54
2022-10-18T16:57:10.339Z,52.2
2022-10-18T17:03:10.515Z,60.7
2022-10-18T17:08:45.511Z,58.1
2022-10-18T17:14:20.296Z,58.3
2022-10-18T17:19:54.764Z,57.6
2022-10-18T17:25:31.869Z,58.8
2022-10-18T17:31:56.490Z,61
2022-10-18T17:37:32.175Z,64.7
2022-10-18T17:43:10.478Z,68.8
2022-10-18T17:48:55.153Z,66.8
2022-10-18T17:54:30.248Z,62.7
2022-10-18T18:00:04.935Z,61.1
2022-10-18T18:05:48.339Z,62.1
2022-10-18T18:11:45.220Z,65.7
2022-10-18T18:17:39.986Z,64.9
2022-10-18T18:23:33.887Z,62.1
2022-10-18T18:29:08.799Z,66.1
2022-10-18T18:34:49.949Z,66.5
2022-10-18T18:40:25.200Z,65
2022-10-18T18:46:08.366Z,63
2022-10-18T18:51:43.256Z,63.6
2022-10-18T18:57:25.852Z,63.8
2022-10-18T19:03:29.524Z,71.6
2022-10-18T19:09:13.942Z,73.2
2022-10-18T19:14:48.874Z,68.3
2022-10-18T19:20:32.623Z,67
2022-10-18T19:26:11.263Z,71.3
2022-10-18T19:31:46.609Z,72.3
2022-10-18T19:37:29.107Z,74.9
2022-10-18T19:43:04.847Z,74.4
2022-10-18T19:48:42.520Z,76.6
2022-10-18T19:54:26.037Z,77.7
2022-10-18T20:00:02.663Z,78.9
2022-10-18T20:06:07.349Z,78.3
2022-10-18T20:11:42.163Z,77.6
2022-10-18T20:17:18.189Z,78
2022-10-18T20:22:54.326Z,77.2
2022-10-18T20:28:31.420Z,75
2022-10-18T20:34:50.066Z,75.2
2022-10-18T20:42:02.426Z,74.6
2022-10-18T20:47:43.870Z,73.9
2022-10-18T20:53:39.715Z,74.9
2022-10-18T20:59:14.826Z,74.9
2022-10-18T21:04:49.666Z,73.7
2022-10-18T21:10:27.613Z,72
2022-10-18T21:16:02.710Z,73.7
2022-10-18T21:21:46.130Z,71.9
2022-10-18T21:27:22.114Z,71
2022-10-18T21:32:56.966Z,70.5
2022-10-18T21:38:32.062Z,70.2
2022-10-18T21:44:11.015Z,70.3
2022-10-18T21:49:45.905Z,70.3
2022-10-18T21:55:21.039Z,70.2
2022-10-18T22:00:56.163Z,70
2022-10-18T22:06:31.997Z,70
2022-10-18T22:12:10.931Z,69.9
2022-10-18T22:17:46.451Z,69.7
2022-10-18T22:23:21.392Z,69.5
2022-10-18T22:28:56.573Z,69.5
2022-10-18T22:34:32.863Z,69.6
2022-10-18T22:40:07.638Z,69.8
2022-10-18T22:45:42.640Z,69.9
2022-10-18T22:51:17.692Z,70
2022-10-18T22:56:52.645Z,69.9
2022-10-18T23:02:27.449Z,69.7
2022-10-18T23:08:02.565Z,69.3
2022-10-18T23:13:39.994Z,69.3
2022-10-18T23:19:15.137Z,69.5
2022-10-18T23:24:50.148Z,70.1
2022-10-18T23:30:25.897Z,70.4
2022-10-18T23:36:01.101Z,70
2022-10-18T23:41:37.256Z,69.7
2022-10-18T23:47:12.241Z,69.2
2022-10-18T23:52:47.217Z,69.2
2022-10-18T23:58:22.966Z,69.3
